Terminal Aerodrome Forecast
Issued by NWS

Home | Current Version | Previous Version | Text Only | Print | Product List | Glossary On
Versions: 1 2 3 4 5 6 7 8 9 10 11 12 13 14
221
FTUS44 KCRP 131729
TAFALI
TAF
KALI 131729Z 1318/1418 18007KT P6SM SCT150 OVC250
     FM140600 20003KT P6SM SCT120 BKN250
     FM141400 08005KT P6SM BKN100 OVC200=

USA.gov is the U.S. government's official web portal to all federal, state and local government web resources and services.